This is the latest recevied weather packets stored in our database for station/object W1SCW. If no packets are shown the sender has not sent any weather packets the latest 10 day(s).
| Time | Temp. | Humidity | Pressure | Rain* | Wind** | Luminosity | Snow |
|---|---|---|---|---|---|---|---|
| 1777495177 | 31.67° C | 66% | 1008.4 hPa | 0 mm | - | 754 W/m² | - |
| 1777494874 | 31.67° C | 65% | 1008.4 hPa | 0 mm | - | 330 W/m² | - |
| 1777494571 | 31.67° C | 65% | 1008.5 hPa | 0 mm | - | 334 W/m² | - |
| 1777494269 | 32.22° C | 63% | 1008.7 hPa | 0 mm | - | 680 W/m² | - |
| 1777493965 | 32.22° C | 63% | 1008.7 hPa | 0 mm | - | 634 W/m² | - |
| 1777493663 | 32.22° C | 63% | 1008.5 hPa | 0 mm | - | 571 W/m² | - |
| 1777493360 | 31.67° C | 64% | 1008.7 hPa | 0 mm | - | 767 W/m² | - |
| 1777493057 | 31.11° C | 65% | 1008.9 hPa | 0 mm | - | 527 W/m² | - |
| 1777492754 | 30.56° C | 66% | 1008.9 hPa | 0 mm | - | 356 W/m² | - |
| 1777492449 | 30.56° C | 67% | 1009 hPa | 0 mm | - | 274 W/m² | - |
| 1777492146 | 31.67° C | 66% | 1009.1 hPa | 0 mm | - | 674 W/m² | - |
| 1777491843 | 31.67° C | 66% | 1009.1 hPa | 0 mm | - | 536 W/m² | - |
| 1777491539 | 31.11° C | 66% | 1009 hPa | 0 mm | - | 332 W/m² | - |
| 1777491237 | 31.67° C | 66% | 1009.1 hPa | 0 mm | - | 404 W/m² | - |
| 1777490933 | 32.22° C | 65% | 1009.2 hPa | 0 mm | - | 359 W/m² | - |
| 1777490629 | 31.67° C | 65% | 1009.1 hPa | 0 mm | - | 508 W/m² | - |
| 1777490325 | 31.67° C | 66% | 1009.3 hPa | 0 mm | - | 613 W/m² | - |
| 1777490023 | 31.67° C | 66% | 1009.2 hPa | 0 mm | - | 947 W/m² | - |
| 1777489720 | 31.11° C | 67% | 1009.2 hPa | 0 mm | - | 740 W/m² | - |
| 1777489417 | 30.56° C | 70% | 1009.5 hPa | 0 mm | - | 283 W/m² | - |
| 1777489114 | 30.56° C | 69% | 1009.6 hPa | 0 mm | - | 420 W/m² | - |
| 1777488811 | 30.56° C | 70% | 1009.7 hPa | 0 mm | - | 351 W/m² | - |
| 1777488508 | 30.56° C | 70% | 1009.8 hPa | 0 mm | - | 337 W/m² | - |
| 1777488206 | 30.56° C | 69% | 1009.8 hPa | 0 mm | - | 301 W/m² | - |
| 1777487904 | 30.56° C | 70% | 1010 hPa | 0 mm | - | 244 W/m² | - |
* Rain latest hour (hover to see other rain measurements)
** Current wind speed in m/s (hover to see current wind gust speed)